Terminal Aerodrome Forecast
Issued by NWS Atlanta, GA

Home | Current Version | Previous Version | Text Only | Print | Product List | Glossary On
Versions: 1 2 3 4 5 6 7 8 9 10 11 12 13 14 15 16 17 18 19 20 21 22 23 24
000
FTUS42 KFFC 020200 AAA
TAFMCN
TAF AMD
KMCN 020200Z 0202/0224 VRB05KT P6SM -SHRA SCT080 OVC150
     FM020300 00000KT P6SM SCT150 SCT250
      TEMPO 0209/0213 3SM BR
     FM021400 VRB03KT P6SM SCT030 SCT150
     FM021800 VRB05KT P6SM SCT050 SCT150 PROB30 0219/0223 VRB15G30KT
      5SM TSRA BKN045CB=

USA.gov is the U.S. government's official web portal to all federal, state and local government web resources and services.